Time;durP1;ratioP1;P1;durP2;ratioP2;P2;SDS_P1;SDS_P2;PMS_P1;PMS_P2;Temp;Humidity;BMP_temperature;BMP_pressure;BME280_temperature;BME280_humidity;BME280_pressure;Samples;Min_cycle;Max_cycle;Signal;HPM_P1;HPM_P2
2021/12/30 00:04:17;;;;;;;7.82;5.60;;;;;;;20.34;nan;100216.22;20445991;28;98544;-61
2021/12/30 00:14:17;;;;;;;8.18;5.90;;;;;;;20.33;nan;100220.63;20390619;28;98585;-61
2021/12/30 00:24:18;;;;;;;7.05;5.20;;;;;;;20.33;nan;100219.78;20416281;28;98117;-61
2021/12/30 00:34:19;;;;;;;7.25;5.32;;;;;;;20.29;nan;100238.41;20395309;28;100295;-60
2021/12/30 00:44:19;;;;;;;7.22;5.30;;;;;;;20.28;nan;100257.78;20398741;28;99631;-60
2021/12/30 00:54:20;;;;;;;7.32;4.90;;;;;;;20.23;nan;100269.59;20394833;28;101238;-60
2021/12/30 01:04:21;;;;;;;6.57;4.60;;;;;;;20.24;nan;100294.94;20400428;28;109275;-60
2021/12/30 01:14:25;;;;;;;7.13;5.05;;;;;;;20.21;nan;100284.66;20406643;28;100298;-61
2021/12/30 01:24:26;;;;;;;7.15;5.03;;;;;;;20.19;nan;100295.28;20410047;28;103093;-61
2021/12/30 01:34:28;;;;;;;6.38;4.90;;;;;;;20.15;nan;100299.94;20414023;28;102205;-61
2021/12/30 01:44:28;;;;;;;7.15;4.40;;;;;;;20.16;nan;100311.28;20403748;28;101803;-61
2021/12/30 01:54:29;;;;;;;6.13;4.38;;;;;;;20.13;nan;100316.78;20395841;28;101422;-61
2021/12/30 02:04:30;;;;;;;5.10;3.92;;;;;;;20.11;nan;100308.97;20395569;28;102007;-59
2021/12/30 02:14:33;;;;;;;5.57;4.18;;;;;;;20.07;nan;100319.88;20389673;28;102045;-60
2021/12/30 02:24:45;;;;;;;5.90;4.30;;;;;;;20.09;nan;100315.31;20391255;27;101978;-60
2021/12/30 02:34:45;;;;;;;5.43;3.90;;;;;;;20.05;nan;100306.81;20425826;28;108740;-60
2021/12/30 02:44:47;;;;;;;6.10;4.18;;;;;;;20.03;nan;100313.13;20409976;28;101869;-60
2021/12/30 02:54:48;;;;;;;5.47;4.05;;;;;;;20.02;nan;100298.31;20415809;28;98724;-60
2021/12/30 03:04:48;;;;;;;5.90;4.40;;;;;;;19.98;nan;100321.34;20392557;28;97823;-61
2021/12/30 03:14:49;;;;;;;6.05;4.03;;;;;;;19.97;nan;100314.44;20407081;28;103652;-60
2021/12/30 03:24:49;;;;;;;4.68;3.70;;;;;;;19.95;nan;100321.59;20384203;28;102013;-60
2021/12/30 03:34:51;;;;;;;5.43;4.15;;;;;;;19.93;nan;100339.25;20388845;28;101949;-60
2021/12/30 03:44:56;;;;;;;5.22;3.80;;;;;;;19.91;nan;100343.78;20390177;28;102135;-61
2021/12/30 03:54:58;;;;;;;6.15;4.18;;;;;;;19.91;nan;100362.16;20400898;28;99209;-61
2021/12/30 04:04:58;;;;;;;5.07;3.53;;;;;;;19.88;nan;100373.75;20384349;28;101641;-61
2021/12/30 04:15:05;;;;;;;5.88;3.90;;;;;;;19.86;nan;100374.81;20384478;28;102522;-61
2021/12/30 04:25:08;;;;;;;5.05;3.72;;;;;;;19.86;nan;100396.69;20432538;28;100470;-62
2021/12/30 04:35:10;;;;;;;4.65;3.80;;;;;;;19.83;nan;100418.78;20398444;28;102269;-62
2021/12/30 04:45:12;;;;;;;4.85;3.58;;;;;;;19.82;nan;100403.91;20396187;28;100296;-60
2021/12/30 04:55:13;;;;;;;5.00;3.90;;;;;;;19.82;nan;100408.31;20399114;28;98136;-61
2021/12/30 05:05:13;;;;;;;4.40;3.50;;;;;;;19.82;nan;100426.72;20398418;28;101051;-60
2021/12/30 05:15:15;;;;;;;5.43;3.40;;;;;;;19.90;nan;100470.88;20397624;28;98519;-61
2021/12/30 05:25:18;;;;;;;4.22;3.35;;;;;;;20.05;nan;100511.00;20393436;28;102584;-61
2021/12/30 05:35:20;;;;;;;4.80;3.15;;;;;;;20.17;nan;100531.16;20396238;28;100435;-61
2021/12/30 05:45:24;;;;;;;5.72;3.53;;;;;;;20.25;nan;100536.72;20399559;28;100557;-60
2021/12/30 05:55:26;;;;;;;4.57;3.25;;;;;;;20.35;nan;100541.31;20393255;28;100497;-60
2021/12/30 06:05:26;;;;;;;4.97;3.22;;;;;;;20.41;nan;100547.00;20400801;28;98453;-60
2021/12/30 06:15:28;;;;;;;6.75;3.30;;;;;;;20.51;nan;100564.72;20401182;28;97834;-60
2021/12/30 06:25:29;;;;;;;7.10;3.20;;;;;;;20.58;nan;100582.63;20424454;28;99386;-60
2021/12/30 06:35:34;;;;;;;6.60;2.88;;;;;;;20.72;nan;100592.16;20410205;28;98895;-61
2021/12/30 06:45:35;;;;;;;4.80;3.08;;;;;;;20.80;nan;100604.78;20431148;28;97545;-61
2021/12/30 06:55:35;;;;;;;5.05;2.85;;;;;;;20.88;nan;100626.09;20421772;28;98720;-61
2021/12/30 07:05:36;;;;;;;4.22;2.58;;;;;;;20.95;nan;100661.56;20421159;28;101494;-60
2021/12/30 07:15:36;;;;;;;3.63;2.90;;;;;;;21.02;nan;100661.97;20424287;28;104514;-61
2021/12/30 07:25:37;;;;;;;4.85;2.90;;;;;;;21.06;nan;100654.69;20423673;28;101552;-60
2021/12/30 07:35:37;;;;;;;3.80;2.83;;;;;;;21.16;nan;100692.56;20405602;28;98625;-62
2021/12/30 07:45:38;;;;;;;3.55;2.80;;;;;;;21.19;nan;100702.03;20411068;28;97918;-61
2021/12/30 07:55:38;;;;;;;4.95;3.42;;;;;;;21.24;nan;100699.91;20430978;28;97859;-61
2021/12/30 08:05:40;;;;;;;13.15;3.95;;;;;;;21.32;nan;100702.81;20460761;28;97654;-61
2021/12/30 08:15:41;;;;;;;6.28;4.63;;;;;;;21.40;nan;100711.00;20398850;27;99189;-61
2021/12/30 08:25:43;;;;;;;9.52;6.30;;;;;;;21.46;nan;100716.78;20404577;27;99578;-60
2021/12/30 08:35:44;;;;;;;15.07;7.60;;;;;;;21.36;nan;100717.47;20394720;28;99786;-60
2021/12/30 08:45:46;;;;;;;18.58;7.75;;;;;;;21.26;nan;100735.72;20400594;28;98475;-61
2021/12/30 08:55:46;;;;;;;9.57;6.13;;;;;;;21.28;nan;100738.25;20395367;28;99198;-60
2021/12/30 09:05:47;;;;;;;9.35;6.32;;;;;;;21.27;nan;100733.94;20391285;28;100180;-60
2021/12/30 09:15:49;;;;;;;9.45;6.38;;;;;;;21.27;nan;100734.75;20398051;28;102453;-60
2021/12/30 09:25:53;;;;;;;16.20;5.85;;;;;;;21.35;nan;100736.00;20371963;28;104091;-61
2021/12/30 09:35:59;;;;;;;10.82;5.30;;;;;;;21.31;nan;100751.19;20394570;28;100737;-62
2021/12/30 09:46:00;;;;;;;34.83;6.95;;;;;;;21.13;nan;100748.09;20371660;28;103069;-60
2021/12/30 09:56:01;;;;;;;25.27;6.55;;;;;;;21.14;nan;100747.16;20387905;28;105304;-60
2021/12/30 10:06:10;;;;;;;30.23;7.00;;;;;;;21.04;nan;100752.19;20380415;28;100989;-60
2021/12/30 10:16:12;;;;;;;25.02;6.40;;;;;;;21.08;nan;100745.78;20399236;28;100877;-60
2021/12/30 10:26:14;;;;;;;21.50;7.97;;;;;;;20.84;nan;100752.78;20394749;28;98828;-60
2021/12/30 10:36:35;;;;;;;23.45;9.13;;;;;;;20.69;nan;100749.38;20398068;28;101780;-60
2021/12/30 10:46:36;;;;;;;19.02;7.30;;;;;;;20.82;nan;100744.97;20394441;28;101870;-59
2021/12/30 10:56:40;;;;;;;19.38;7.38;;;;;;;20.75;nan;100741.97;20406495;28;101331;-59
2021/12/30 11:06:42;;;;;;;21.80;6.97;;;;;;;20.80;nan;100733.75;20394609;28;100390;-59
2021/12/30 11:16:59;;;;;;;27.67;6.43;;;;;;;20.84;nan;100729.09;20379451;28;101495;-58
2021/12/30 11:27:03;;;;;;;14.80;5.55;;;;;;;20.84;nan;100722.03;20383854;28;103316;-59
2021/12/30 11:37:05;;;;;;;10.57;5.38;;;;;;;20.84;nan;100724.66;20363168;28;98893;-59
2021/12/30 11:47:28;;;;;;;9.25;4.95;;;;;;;20.93;nan;100695.06;20367152;28;102168;-59
2021/12/30 11:57:36;;;;;;;12.68;6.35;;;;;;;21.13;nan;100695.44;20358856;28;100969;-61
2021/12/30 12:08:05;;;;;;;14.27;7.47;;;;;;;21.22;nan;100705.28;20380606;28;102044;-59
2021/12/30 12:18:14;;;;;;;27.10;8.50;;;;;;;21.25;nan;100712.13;20361952;28;102723;-60
2021/12/30 12:28:19;;;;;;;19.85;6.80;;;;;;;21.28;nan;100711.91;20392418;28;101421;-59
2021/12/30 12:38:40;;;;;;;24.50;6.35;;;;;;;21.22;nan;100747.41;20379087;28;101135;-61
2021/12/30 12:48:53;;;;;;;13.57;5.90;;;;;;;21.13;nan;100740.19;20386010;28;99481;-60
2021/12/30 12:58:57;;;;;;;14.48;6.18;;;;;;;21.04;nan;100727.69;20394311;28;101495;-61
2021/12/30 13:09:06;;;;;;;10.05;5.50;;;;;;;21.00;nan;100740.22;20406845;28;99144;-60
2021/12/30 13:19:19;;;;;;;12.48;4.85;;;;;;;20.99;nan;100756.97;20394836;28;102499;-60
2021/12/30 13:29:28;;;;;;;11.77;4.20;;;;;;;21.13;nan;100758.63;20406119;28;100469;-59
2021/12/30 13:39:34;;;;;;;9.13;4.35;;;;;;;21.19;nan;100765.22;20400806;28;99030;-59
2021/12/30 13:49:35;;;;;;;8.60;4.10;;;;;;;21.15;nan;100780.41;20387141;28;102014;-59
2021/12/30 13:59:36;;;;;;;7.97;4.53;;;;;;;21.14;nan;100788.41;20384599;28;101657;-59
2021/12/30 14:09:36;;;;;;;9.02;4.82;;;;;;;21.14;nan;100749.78;20405974;28;102199;-58
2021/12/30 14:19:40;;;;;;;30.90;8.35;;;;;;;21.18;nan;100779.34;20388636;28;103447;-59
2021/12/30 14:29:41;;;;;;;35.03;8.10;;;;;;;21.19;nan;100802.97;20391402;28;102484;-59
2021/12/30 14:39:45;;;;;;;22.75;7.97;;;;;;;21.20;nan;100791.47;20405356;28;99050;-59
2021/12/30 14:50:03;;;;;;;36.33;7.47;;;;;;;21.13;nan;100789.38;20379610;28;101832;-60
2021/12/30 15:00:07;;;;;;;22.42;7.28;;;;;;;20.91;nan;100794.38;20408263;28;99129;-59
2021/12/30 15:10:10;;;;;;;19.48;8.02;;;;;;;20.89;nan;100790.16;20418345;28;100956;-59
2021/12/30 15:20:15;;;;;;;19.70;6.63;;;;;;;20.89;nan;100805.94;20398853;28;99341;-60
2021/12/30 15:30:17;;;;;;;12.75;6.18;;;;;;;20.90;nan;100819.00;20416315;28;100409;-59
2021/12/30 15:40:17;;;;;;;15.25;6.32;;;;;;;20.90;nan;100819.00;20390119;28;100229;-59
2021/12/30 15:50:18;;;;;;;15.68;5.82;;;;;;;20.92;nan;100801.31;20396849;28;100072;-59
2021/12/30 16:00:22;;;;;;;13.85;5.18;;;;;;;20.92;nan;100818.88;20399090;28;99956;-59
2021/12/30 16:10:23;;;;;;;13.30;5.85;;;;;;;20.91;nan;100809.31;20394283;28;101660;-59
2021/12/30 16:20:24;;;;;;;9.75;5.55;;;;;;;20.92;nan;100826.78;20403307;28;98738;-59
2021/12/30 16:30:24;;;;;;;11.98;5.68;;;;;;;20.93;nan;100844.25;20428334;28;98743;-59
2021/12/30 16:40:29;;;;;;;11.27;5.07;;;;;;;20.95;nan;100868.69;20402794;28;107568;-60
2021/12/30 16:50:30;;;;;;;8.88;5.03;;;;;;;20.97;nan;100869.44;20441690;28;101692;-60
2021/12/30 17:00:33;;;;;;;10.68;5.10;;;;;;;20.98;nan;100852.69;20435573;28;98519;-60
2021/12/30 17:10:36;;;;;;;9.95;5.15;;;;;;;20.97;nan;100866.81;20402709;28;99164;-59
2021/12/30 17:20:37;;;;;;;7.17;4.53;;;;;;;20.97;nan;100845.75;20396626;28;100207;-60
2021/12/30 17:30:39;;;;;;;8.85;4.72;;;;;;;20.99;nan;100850.91;20415103;28;98326;-59
2021/12/30 17:40:40;;;;;;;6.93;4.47;;;;;;;20.95;nan;100848.47;20388318;28;99670;-60
2021/12/30 17:50:45;;;;;;;7.55;4.90;;;;;;;20.97;nan;100868.59;20394648;27;98916;-60
2021/12/30 18:00:46;;;;;;;8.43;4.50;;;;;;;20.96;nan;100865.13;20397008;27;99087;-60
2021/12/30 18:10:46;;;;;;;8.40;4.65;;;;;;;20.95;nan;100856.38;20414998;28;98371;-59
2021/12/30 18:20:47;;;;;;;6.72;4.65;;;;;;;20.94;nan;100864.38;20402068;28;102143;-60
2021/12/30 18:30:47;;;;;;;7.18;4.50;;;;;;;20.94;nan;100869.66;20396205;28;102221;-59
2021/12/30 18:40:48;;;;;;;6.35;4.40;;;;;;;20.93;nan;100868.81;20392156;28;100876;-59
2021/12/30 18:50:52;;;;;;;8.25;4.80;;;;;;;20.93;nan;100870.59;20378998;28;98362;-60
2021/12/30 19:00:53;;;;;;;9.52;4.50;;;;;;;20.90;nan;100879.53;20383128;28;100019;-58
2021/12/30 19:10:54;;;;;;;12.80;5.45;;;;;;;20.99;nan;100887.75;20380747;28;99488;-60
2021/12/30 19:20:55;;;;;;;7.53;4.97;;;;;;;21.03;nan;100878.69;20389245;28;97742;-60
2021/12/30 19:30:56;;;;;;;7.38;4.95;;;;;;;21.10;nan;100879.97;20377354;28;101429;-59
2021/12/30 19:41:01;;;;;;;11.73;5.30;;;;;;;21.09;nan;100873.88;20361173;28;98768;-60
2021/12/30 19:51:01;;;;;;;14.70;7.97;;;;;;;21.04;nan;100880.38;20394168;28;102733;-59
2021/12/30 20:01:05;;;;;;;8.93;5.15;;;;;;;21.03;nan;100884.81;20411537;28;100019;-60
2021/12/30 20:11:06;;;;;;;11.07;6.07;;;;;;;21.01;nan;100875.34;20428171;28;100971;-59
2021/12/30 20:21:08;;;;;;;11.27;6.65;;;;;;;20.97;nan;100874.72;20440726;28;99652;-60
2021/12/30 20:31:08;;;;;;;11.60;5.82;;;;;;;20.97;nan;100881.75;20425557;28;98252;-59
2021/12/30 20:41:11;;;;;;;10.90;5.90;;;;;;;20.92;nan;100871.53;20426344;28;97492;-60
2021/12/30 20:51:11;;;;;;;10.90;6.47;;;;;;;20.90;nan;100863.75;20425702;27;98994;-60
2021/12/30 21:01:12;;;;;;;10.88;6.65;;;;;;;20.87;nan;100855.22;20429701;28;98658;-60
2021/12/30 21:11:14;;;;;;;9.70;6.05;;;;;;;20.83;nan;100843.22;20446198;28;97544;-60
2021/12/30 21:21:15;;;;;;;10.60;6.78;;;;;;;20.79;nan;100843.44;20391326;28;102371;-60
2021/12/30 21:31:21;;;;;;;9.75;6.43;;;;;;;20.76;nan;100845.41;20375374;28;102014;-60
2021/12/30 21:41:23;;;;;;;15.25;6.90;;;;;;;20.71;nan;100853.59;20378665;28;101677;-60
2021/12/30 21:51:25;;;;;;;11.32;7.40;;;;;;;20.68;nan;100851.19;20388372;28;99496;-60
2021/12/30 22:01:26;;;;;;;11.73;7.23;;;;;;;20.66;nan;100832.03;20410761;28;99839;-60
2021/12/30 22:11:28;;;;;;;14.02;7.72;;;;;;;20.63;nan;100827.81;20397252;28;101239;-61
2021/12/30 22:21:28;;;;;;;9.90;6.95;;;;;;;20.61;nan;100820.97;20403311;28;99369;-60
2021/12/30 22:31:29;;;;;;;10.52;7.10;;;;;;;20.58;nan;100818.53;20413918;28;99889;-60
2021/12/30 22:41:29;;;;;;;11.60;7.10;;;;;;;20.57;nan;100820.34;20424246;27;101383;-60
2021/12/30 22:51:31;;;;;;;9.43;6.87;;;;;;;20.54;nan;100817.91;20419443;28;101872;-60
2021/12/30 23:01:32;;;;;;;10.65;6.57;;;;;;;20.53;nan;100818.00;20419079;28;100445;-60
2021/12/30 23:11:32;;;;;;;10.57;6.83;;;;;;;20.48;nan;100816.53;20405308;28;102527;-60
2021/12/30 23:21:36;;;;;;;9.15;6.63;;;;;;;20.45;nan;100806.22;20419040;28;101487;-60
2021/12/30 23:31:37;;;;;;;9.65;6.40;;;;;;;20.43;nan;100783.59;20405963;28;103272;-60
2021/12/30 23:41:46;;;;;;;10.35;6.45;;;;;;;20.39;nan;100785.59;20383012;28;98485;-60
2021/12/30 23:51:47;;;;;;;9.15;6.28;;;;;;;20.36;nan;100784.97;20378199;28;99594;-60
